sensor_id;sensor_type;location;lat;lon;timestamp;P1;durP1;ratioP1;P2;durP2;ratioP2
5813;SDS011;2933;52.302;8.134;2023-11-18T00:01:32;14.67;;;9.20;;
5813;SDS011;2933;52.302;8.134;2023-11-18T00:06:33;20.13;;;9.70;;
5813;SDS011;2933;52.302;8.134;2023-11-18T00:11:35;15.30;;;9.17;;
5813;SDS011;2933;52.302;8.134;2023-11-18T00:16:38;21.50;;;8.60;;
5813;SDS011;2933;52.302;8.134;2023-11-18T00:21:40;15.60;;;9.77;;
5813;SDS011;2933;52.302;8.134;2023-11-18T00:26:42;14.93;;;9.50;;
5813;SDS011;2933;52.302;8.134;2023-11-18T00:31:45;16.30;;;10.00;;
5813;SDS011;2933;52.302;8.134;2023-11-18T00:36:47;24.17;;;9.77;;
5813;SDS011;2933;52.302;8.134;2023-11-18T00:41:48;26.70;;;8.70;;
5813;SDS011;2933;52.302;8.134;2023-11-18T00:46:51;15.90;;;9.33;;
5813;SDS011;2933;52.302;8.134;2023-11-18T00:51:53;15.47;;;8.70;;
5813;SDS011;2933;52.302;8.134;2023-11-18T00:56:54;12.53;;;8.43;;
5813;SDS011;2933;52.302;8.134;2023-11-18T01:01:57;17.37;;;9.00;;
5813;SDS011;2933;52.302;8.134;2023-11-18T01:06:59;24.03;;;9.10;;
5813;SDS011;2933;52.302;8.134;2023-11-18T01:12:00;17.43;;;8.80;;
5813;SDS011;2933;52.302;8.134;2023-11-18T01:17:04;14.97;;;7.90;;
5813;SDS011;2933;52.302;8.134;2023-11-18T01:22:05;16.57;;;9.97;;
5813;SDS011;2933;52.302;8.134;2023-11-18T01:27:08;17.13;;;9.20;;
5813;SDS011;2933;52.302;8.134;2023-11-18T01:32:12;20.23;;;8.90;;
5813;SDS011;2933;52.302;8.134;2023-11-18T01:37:14;17.00;;;7.97;;
5813;SDS011;2933;52.302;8.134;2023-11-18T01:42:15;22.67;;;8.17;;
5813;SDS011;2933;52.302;8.134;2023-11-18T01:47:18;15.57;;;8.90;;
5813;SDS011;2933;52.302;8.134;2023-11-18T01:52:20;13.80;;;7.93;;
5813;SDS011;2933;52.302;8.134;2023-11-18T01:57:22;14.03;;;8.40;;
5813;SDS011;2933;52.302;8.134;2023-11-18T02:02:25;13.90;;;8.20;;
5813;SDS011;2933;52.302;8.134;2023-11-18T02:07:27;21.43;;;8.70;;
5813;SDS011;2933;52.302;8.134;2023-11-18T02:12:30;13.47;;;8.00;;
5813;SDS011;2933;52.302;8.134;2023-11-18T02:17:41;20.23;;;8.87;;
5813;SDS011;2933;52.302;8.134;2023-11-18T02:22:46;17.90;;;8.60;;
5813;SDS011;2933;52.302;8.134;2023-11-18T02:27:50;14.87;;;8.67;;
5813;SDS011;2933;52.302;8.134;2023-11-18T02:32:54;13.20;;;7.57;;
5813;SDS011;2933;52.302;8.134;2023-11-18T02:38:02;16.47;;;8.43;;
5813;SDS011;2933;52.302;8.134;2023-11-18T02:43:08;13.80;;;8.53;;
5813;SDS011;2933;52.302;8.134;2023-11-18T02:48:11;17.90;;;8.20;;
5813;SDS011;2933;52.302;8.134;2023-11-18T02:53:16;23.87;;;7.50;;
5813;SDS011;2933;52.302;8.134;2023-11-18T02:58:19;14.87;;;7.73;;
5813;SDS011;2933;52.302;8.134;2023-11-18T03:03:21;14.17;;;7.90;;
5813;SDS011;2933;52.302;8.134;2023-11-18T03:08:22;15.63;;;8.70;;
5813;SDS011;2933;52.302;8.134;2023-11-18T03:13:25;16.87;;;8.33;;
5813;SDS011;2933;52.302;8.134;2023-11-18T03:18:27;19.80;;;8.67;;
5813;SDS011;2933;52.302;8.134;2023-11-18T03:23:29;22.17;;;9.33;;
5813;SDS011;2933;52.302;8.134;2023-11-18T03:28:32;25.90;;;9.70;;
5813;SDS011;2933;52.302;8.134;2023-11-18T03:33:34;36.40;;;10.43;;
5813;SDS011;2933;52.302;8.134;2023-11-18T03:38:35;26.43;;;9.80;;
5813;SDS011;2933;52.302;8.134;2023-11-18T03:43:39;25.73;;;10.03;;
5813;SDS011;2933;52.302;8.134;2023-11-18T03:48:40;33.03;;;10.57;;
5813;SDS011;2933;52.302;8.134;2023-11-18T03:53:44;18.67;;;9.50;;
5813;SDS011;2933;52.302;8.134;2023-11-18T03:58:47;22.90;;;8.97;;
5813;SDS011;2933;52.302;8.134;2023-11-18T04:03:48;23.97;;;10.40;;
5813;SDS011;2933;52.302;8.134;2023-11-18T04:08:50;24.23;;;9.50;;
5813;SDS011;2933;52.302;8.134;2023-11-18T04:13:53;23.23;;;9.97;;
5813;SDS011;2933;52.302;8.134;2023-11-18T04:18:55;23.77;;;9.80;;
5813;SDS011;2933;52.302;8.134;2023-11-18T04:23:57;26.50;;;10.03;;
5813;SDS011;2933;52.302;8.134;2023-11-18T04:29:00;27.03;;;9.87;;
5813;SDS011;2933;52.302;8.134;2023-11-18T04:34:01;33.90;;;10.20;;
5813;SDS011;2933;52.302;8.134;2023-11-18T04:39:04;31.53;;;10.83;;
5813;SDS011;2933;52.302;8.134;2023-11-18T04:44:07;27.67;;;10.13;;
5813;SDS011;2933;52.302;8.134;2023-11-18T04:49:09;22.17;;;9.20;;
5813;SDS011;2933;52.302;8.134;2023-11-18T04:54:10;31.83;;;10.50;;
5813;SDS011;2933;52.302;8.134;2023-11-18T04:59:13;28.87;;;10.07;;
5813;SDS011;2933;52.302;8.134;2023-11-18T05:04:15;33.83;;;11.60;;
5813;SDS011;2933;52.302;8.134;2023-11-18T05:09:17;28.10;;;11.17;;
5813;SDS011;2933;52.302;8.134;2023-11-18T05:14:20;40.67;;;11.90;;
5813;SDS011;2933;52.302;8.134;2023-11-18T05:19:21;36.97;;;12.20;;
5813;SDS011;2933;52.302;8.134;2023-11-18T05:24:23;43.23;;;11.07;;
5813;SDS011;2933;52.302;8.134;2023-11-18T05:29:30;36.07;;;11.30;;
5813;SDS011;2933;52.302;8.134;2023-11-18T05:34:32;27.27;;;10.50;;
5813;SDS011;2933;52.302;8.134;2023-11-18T05:39:35;37.20;;;12.30;;
5813;SDS011;2933;52.302;8.134;2023-11-18T05:44:44;53.00;;;14.10;;
5813;SDS011;2933;52.302;8.134;2023-11-18T05:49:46;42.87;;;13.70;;
5813;SDS011;2933;52.302;8.134;2023-11-18T05:54:47;37.73;;;13.70;;
5813;SDS011;2933;52.302;8.134;2023-11-18T05:59:51;36.30;;;13.53;;
5813;SDS011;2933;52.302;8.134;2023-11-18T06:04:55;43.87;;;14.17;;
5813;SDS011;2933;52.302;8.134;2023-11-18T06:09:57;47.67;;;13.90;;
5813;SDS011;2933;52.302;8.134;2023-11-18T06:15:00;35.87;;;13.37;;
5813;SDS011;2933;52.302;8.134;2023-11-18T06:20:03;45.30;;;15.80;;
5813;SDS011;2933;52.302;8.134;2023-11-18T06:25:06;43.97;;;14.00;;
5813;SDS011;2933;52.302;8.134;2023-11-18T06:30:11;44.03;;;13.80;;
5813;SDS011;2933;52.302;8.134;2023-11-18T06:35:13;52.13;;;14.87;;
5813;SDS011;2933;52.302;8.134;2023-11-18T06:40:15;48.20;;;15.80;;
5813;SDS011;2933;52.302;8.134;2023-11-18T06:45:20;46.43;;;15.20;;
5813;SDS011;2933;52.302;8.134;2023-11-18T06:50:22;43.47;;;14.80;;
5813;SDS011;2933;52.302;8.134;2023-11-18T06:55:24;49.73;;;17.50;;
5813;SDS011;2933;52.302;8.134;2023-11-18T07:00:28;49.63;;;15.33;;
5813;SDS011;2933;52.302;8.134;2023-11-18T07:05:30;42.97;;;14.17;;
5813;SDS011;2933;52.302;8.134;2023-11-18T07:10:41;50.10;;;15.90;;
5813;SDS011;2933;52.302;8.134;2023-11-18T07:15:48;40.17;;;15.10;;
5813;SDS011;2933;52.302;8.134;2023-11-18T07:20:50;43.60;;;14.03;;
5813;SDS011;2933;52.302;8.134;2023-11-18T07:25:52;48.47;;;15.50;;
5813;SDS011;2933;52.302;8.134;2023-11-18T07:30:56;45.57;;;16.40;;
5813;SDS011;2933;52.302;8.134;2023-11-18T07:35:58;40.23;;;13.80;;
5813;SDS011;2933;52.302;8.134;2023-11-18T07:41:00;42.30;;;14.80;;
5813;SDS011;2933;52.302;8.134;2023-11-18T07:46:04;36.80;;;14.70;;
5813;SDS011;2933;52.302;8.134;2023-11-18T07:51:07;34.93;;;14.43;;
5813;SDS011;2933;52.302;8.134;2023-11-18T07:56:11;42.17;;;14.30;;
5813;SDS011;2933;52.302;8.134;2023-11-18T08:01:14;39.40;;;14.70;;
5813;SDS011;2933;52.302;8.134;2023-11-18T08:06:16;37.43;;;14.63;;
5813;SDS011;2933;52.302;8.134;2023-11-18T08:11:18;35.50;;;14.80;;
5813;SDS011;2933;52.302;8.134;2023-11-18T08:16:21;38.07;;;14.53;;
5813;SDS011;2933;52.302;8.134;2023-11-18T08:21:24;35.87;;;13.93;;
5813;SDS011;2933;52.302;8.134;2023-11-18T08:26:26;40.50;;;13.10;;
5813;SDS011;2933;52.302;8.134;2023-11-18T08:31:29;47.97;;;15.63;;
5813;SDS011;2933;52.302;8.134;2023-11-18T08:36:30;34.37;;;13.67;;
5813;SDS011;2933;52.302;8.134;2023-11-18T08:41:34;39.67;;;13.63;;
5813;SDS011;2933;52.302;8.134;2023-11-18T08:46:37;34.37;;;12.80;;
5813;SDS011;2933;52.302;8.134;2023-11-18T08:51:39;40.00;;;16.80;;
5813;SDS011;2933;52.302;8.134;2023-11-18T08:56:42;43.13;;;15.33;;
5813;SDS011;2933;52.302;8.134;2023-11-18T09:01:54;38.27;;;15.20;;
5813;SDS011;2933;52.302;8.134;2023-11-18T09:07:00;33.23;;;13.77;;
5813;SDS011;2933;52.302;8.134;2023-11-18T09:12:11;35.50;;;13.70;;
5813;SDS011;2933;52.302;8.134;2023-11-18T09:17:16;38.70;;;14.57;;
5813;SDS011;2933;52.302;8.134;2023-11-18T09:22:18;43.37;;;15.80;;
5813;SDS011;2933;52.302;8.134;2023-11-18T09:27:20;45.47;;;14.63;;
5813;SDS011;2933;52.302;8.134;2023-11-18T09:32:24;37.40;;;13.43;;
5813;SDS011;2933;52.302;8.134;2023-11-18T09:37:26;32.33;;;13.50;;
5813;SDS011;2933;52.302;8.134;2023-11-18T09:42:28;32.43;;;13.00;;
5813;SDS011;2933;52.302;8.134;2023-11-18T09:47:31;32.03;;;12.93;;
5813;SDS011;2933;52.302;8.134;2023-11-18T09:52:41;37.40;;;14.70;;
5813;SDS011;2933;52.302;8.134;2023-11-18T09:57:52;37.50;;;13.60;;
5813;SDS011;2933;52.302;8.134;2023-11-18T10:03:05;34.47;;;14.90;;
5813;SDS011;2933;52.302;8.134;2023-11-18T10:08:08;44.23;;;14.77;;
5813;SDS011;2933;52.302;8.134;2023-11-18T10:13:09;42.37;;;15.43;;
5813;SDS011;2933;52.302;8.134;2023-11-18T10:18:23;43.50;;;14.77;;
5813;SDS011;2933;52.302;8.134;2023-11-18T10:23:25;48.00;;;17.37;;
5813;SDS011;2933;52.302;8.134;2023-11-18T10:28:28;35.27;;;14.40;;
5813;SDS011;2933;52.302;8.134;2023-11-18T10:33:34;35.40;;;13.90;;
5813;SDS011;2933;52.302;8.134;2023-11-18T10:38:38;34.20;;;12.43;;
5813;SDS011;2933;52.302;8.134;2023-11-18T10:43:43;33.50;;;14.50;;
5813;SDS011;2933;52.302;8.134;2023-11-18T10:48:46;39.80;;;13.33;;
5813;SDS011;2933;52.302;8.134;2023-11-18T10:53:49;23.57;;;12.00;;
5813;SDS011;2933;52.302;8.134;2023-11-18T10:58:58;32.30;;;12.97;;
5813;SDS011;2933;52.302;8.134;2023-11-18T11:04:07;33.40;;;13.00;;
5813;SDS011;2933;52.302;8.134;2023-11-18T11:09:10;38.77;;;13.77;;
5813;SDS011;2933;52.302;8.134;2023-11-18T11:14:16;27.40;;;12.03;;
5813;SDS011;2933;52.302;8.134;2023-11-18T11:19:26;27.23;;;12.03;;
5813;SDS011;2933;52.302;8.134;2023-11-18T11:24:46;29.63;;;11.20;;
5813;SDS011;2933;52.302;8.134;2023-11-18T11:30:03;23.93;;;10.20;;
5813;SDS011;2933;52.302;8.134;2023-11-18T11:35:16;29.17;;;10.67;;
5813;SDS011;2933;52.302;8.134;2023-11-18T11:40:23;24.63;;;10.60;;
5813;SDS011;2933;52.302;8.134;2023-11-18T11:45:29;30.87;;;11.13;;
5813;SDS011;2933;52.302;8.134;2023-11-18T11:50:33;16.43;;;8.47;;
5813;SDS011;2933;52.302;8.134;2023-11-18T11:55:49;21.37;;;10.20;;
5813;SDS011;2933;52.302;8.134;2023-11-18T12:00:52;18.47;;;7.73;;
5813;SDS011;2933;52.302;8.134;2023-11-18T12:05:55;20.07;;;7.90;;
5813;SDS011;2933;52.302;8.134;2023-11-18T12:11:07;17.10;;;7.57;;
5813;SDS011;2933;52.302;8.134;2023-11-18T12:16:09;43.43;;;10.27;;
5813;SDS011;2933;52.302;8.134;2023-11-18T12:21:27;11.97;;;7.00;;
5813;SDS011;2933;52.302;8.134;2023-11-18T12:27:00;32.37;;;7.77;;
5813;SDS011;2933;52.302;8.134;2023-11-18T12:32:10;46.37;;;9.67;;
5813;SDS011;2933;52.302;8.134;2023-11-18T12:37:32;20.33;;;6.37;;
5813;SDS011;2933;52.302;8.134;2023-11-18T12:42:58;9.70;;;5.80;;
5813;SDS011;2933;52.302;8.134;2023-11-18T12:48:01;9.00;;;5.93;;
5813;SDS011;2933;52.302;8.134;2023-11-18T12:53:13;12.90;;;6.50;;
5813;SDS011;2933;52.302;8.134;2023-11-18T12:58:18;7.97;;;5.47;;
5813;SDS011;2933;52.302;8.134;2023-11-18T13:03:19;8.50;;;5.53;;
5813;SDS011;2933;52.302;8.134;2023-11-18T13:08:22;9.80;;;5.83;;
5813;SDS011;2933;52.302;8.134;2023-11-18T13:13:26;11.33;;;6.33;;
5813;SDS011;2933;52.302;8.134;2023-11-18T13:18:35;13.80;;;6.20;;
5813;SDS011;2933;52.302;8.134;2023-11-18T13:23:47;10.33;;;5.70;;
5813;SDS011;2933;52.302;8.134;2023-11-18T13:28:50;15.37;;;6.37;;
5813;SDS011;2933;52.302;8.134;2023-11-18T13:33:52;11.00;;;6.50;;
5813;SDS011;2933;52.302;8.134;2023-11-18T13:38:54;11.93;;;6.47;;
5813;SDS011;2933;52.302;8.134;2023-11-18T13:43:56;15.73;;;6.27;;
5813;SDS011;2933;52.302;8.134;2023-11-18T13:48:58;14.43;;;7.87;;
5813;SDS011;2933;52.302;8.134;2023-11-18T13:54:02;8.87;;;6.17;;
5813;SDS011;2933;52.302;8.134;2023-11-18T13:59:04;13.03;;;6.63;;
5813;SDS011;2933;52.302;8.134;2023-11-18T14:04:06;13.10;;;6.23;;
5813;SDS011;2933;52.302;8.134;2023-11-18T14:09:10;11.40;;;6.43;;
5813;SDS011;2933;52.302;8.134;2023-11-18T14:14:12;8.67;;;5.33;;
5813;SDS011;2933;52.302;8.134;2023-11-18T14:19:14;8.47;;;5.40;;
5813;SDS011;2933;52.302;8.134;2023-11-18T14:24:17;8.23;;;5.23;;
5813;SDS011;2933;52.302;8.134;2023-11-18T14:29:18;6.33;;;5.47;;
5813;SDS011;2933;52.302;8.134;2023-11-18T14:34:29;12.00;;;6.13;;
5813;SDS011;2933;52.302;8.134;2023-11-18T14:39:32;11.60;;;7.37;;
5813;SDS011;2933;52.302;8.134;2023-11-18T14:44:36;11.47;;;6.43;;
5813;SDS011;2933;52.302;8.134;2023-11-18T14:49:37;12.73;;;6.90;;
5813;SDS011;2933;52.302;8.134;2023-11-18T14:54:40;12.90;;;7.60;;
5813;SDS011;2933;52.302;8.134;2023-11-18T14:59:42;16.27;;;7.07;;
5813;SDS011;2933;52.302;8.134;2023-11-18T15:04:43;14.90;;;8.27;;
5813;SDS011;2933;52.302;8.134;2023-11-18T15:09:47;10.87;;;6.70;;
5813;SDS011;2933;52.302;8.134;2023-11-18T15:14:48;13.07;;;7.47;;
5813;SDS011;2933;52.302;8.134;2023-11-18T15:19:52;9.53;;;5.83;;
5813;SDS011;2933;52.302;8.134;2023-11-18T15:24:57;10.10;;;6.37;;
5813;SDS011;2933;52.302;8.134;2023-11-18T15:29:59;12.10;;;5.83;;
5813;SDS011;2933;52.302;8.134;2023-11-18T15:35:02;14.17;;;6.00;;
5813;SDS011;2933;52.302;8.134;2023-11-18T15:40:07;7.93;;;5.00;;
5813;SDS011;2933;52.302;8.134;2023-11-18T15:45:11;10.00;;;6.20;;
5813;SDS011;2933;52.302;8.134;2023-11-18T15:50:14;7.37;;;4.63;;
5813;SDS011;2933;52.302;8.134;2023-11-18T15:55:20;6.50;;;4.20;;
5813;SDS011;2933;52.302;8.134;2023-11-18T16:00:22;5.83;;;4.53;;
5813;SDS011;2933;52.302;8.134;2023-11-18T16:05:26;7.97;;;4.80;;
5813;SDS011;2933;52.302;8.134;2023-11-18T16:10:34;9.60;;;5.33;;
5813;SDS011;2933;52.302;8.134;2023-11-18T16:15:37;5.07;;;4.10;;
5813;SDS011;2933;52.302;8.134;2023-11-18T16:20:39;4.60;;;3.67;;
5813;SDS011;2933;52.302;8.134;2023-11-18T16:25:42;5.67;;;3.77;;
5813;SDS011;2933;52.302;8.134;2023-11-18T16:30:43;6.40;;;4.60;;
5813;SDS011;2933;52.302;8.134;2023-11-18T16:35:45;4.50;;;4.07;;
5813;SDS011;2933;52.302;8.134;2023-11-18T16:40:48;7.00;;;4.20;;
5813;SDS011;2933;52.302;8.134;2023-11-18T16:45:50;9.27;;;4.30;;
5813;SDS011;2933;52.302;8.134;2023-11-18T16:50:51;5.33;;;3.60;;
5813;SDS011;2933;52.302;8.134;2023-11-18T16:55:55;8.30;;;4.70;;
5813;SDS011;2933;52.302;8.134;2023-11-18T17:00:56;5.53;;;4.90;;
5813;SDS011;2933;52.302;8.134;2023-11-18T17:05:58;10.10;;;4.00;;
5813;SDS011;2933;52.302;8.134;2023-11-18T17:11:01;6.53;;;3.40;;
5813;SDS011;2933;52.302;8.134;2023-11-18T17:16:04;6.40;;;3.93;;
5813;SDS011;2933;52.302;8.134;2023-11-18T17:21:07;5.30;;;3.57;;
5813;SDS011;2933;52.302;8.134;2023-11-18T17:26:11;4.80;;;3.20;;
5813;SDS011;2933;52.302;8.134;2023-11-18T17:31:12;3.30;;;2.90;;
5813;SDS011;2933;52.302;8.134;2023-11-18T17:36:14;2.57;;;2.47;;
5813;SDS011;2933;52.302;8.134;2023-11-18T17:41:17;3.93;;;2.93;;
5813;SDS011;2933;52.302;8.134;2023-11-18T17:46:21;2.47;;;2.30;;
5813;SDS011;2933;52.302;8.134;2023-11-18T17:51:23;2.23;;;2.13;;
5813;SDS011;2933;52.302;8.134;2023-11-18T17:56:26;2.27;;;2.03;;
5813;SDS011;2933;52.302;8.134;2023-11-18T18:01:28;2.40;;;2.30;;
5813;SDS011;2933;52.302;8.134;2023-11-18T18:06:30;3.73;;;2.83;;
5813;SDS011;2933;52.302;8.134;2023-11-18T18:11:33;2.53;;;2.43;;
5813;SDS011;2933;52.302;8.134;2023-11-18T18:16:35;2.27;;;2.10;;
5813;SDS011;2933;52.302;8.134;2023-11-18T18:21:36;3.10;;;2.37;;
5813;SDS011;2933;52.302;8.134;2023-11-18T18:26:39;2.57;;;2.30;;
5813;SDS011;2933;52.302;8.134;2023-11-18T18:31:41;2.30;;;2.20;;
5813;SDS011;2933;52.302;8.134;2023-11-18T18:36:42;3.40;;;3.20;;
5813;SDS011;2933;52.302;8.134;2023-11-18T18:41:45;3.33;;;2.40;;
5813;SDS011;2933;52.302;8.134;2023-11-18T18:46:47;2.30;;;2.20;;
5813;SDS011;2933;52.302;8.134;2023-11-18T18:51:50;2.10;;;2.00;;
5813;SDS011;2933;52.302;8.134;2023-11-18T18:56:53;2.40;;;2.30;;
5813;SDS011;2933;52.302;8.134;2023-11-18T19:01:55;2.97;;;2.73;;
5813;SDS011;2933;52.302;8.134;2023-11-18T19:06:57;2.00;;;1.90;;
5813;SDS011;2933;52.302;8.134;2023-11-18T19:12:00;2.60;;;2.40;;
5813;SDS011;2933;52.302;8.134;2023-11-18T19:17:08;3.47;;;3.27;;
5813;SDS011;2933;52.302;8.134;2023-11-18T19:22:09;2.37;;;2.20;;
5813;SDS011;2933;52.302;8.134;2023-11-18T19:27:14;1.90;;;1.80;;
5813;SDS011;2933;52.302;8.134;2023-11-18T19:32:16;2.00;;;1.90;;
5813;SDS011;2933;52.302;8.134;2023-11-18T19:37:17;2.43;;;2.07;;
5813;SDS011;2933;52.302;8.134;2023-11-18T19:42:20;1.80;;;1.70;;
5813;SDS011;2933;52.302;8.134;2023-11-18T19:47:22;2.00;;;1.90;;
5813;SDS011;2933;52.302;8.134;2023-11-18T19:52:23;1.63;;;1.60;;
5813;SDS011;2933;52.302;8.134;2023-11-18T19:57:27;1.27;;;1.27;;
5813;SDS011;2933;52.302;8.134;2023-11-18T20:02:31;1.20;;;1.20;;
5813;SDS011;2933;52.302;8.134;2023-11-18T20:07:32;2.73;;;2.50;;
5813;SDS011;2933;52.302;8.134;2023-11-18T20:12:35;2.03;;;1.80;;
5813;SDS011;2933;52.302;8.134;2023-11-18T20:17:37;2.10;;;1.90;;
5813;SDS011;2933;52.302;8.134;2023-11-18T20:22:38;2.37;;;1.87;;
5813;SDS011;2933;52.302;8.134;2023-11-18T20:27:41;1.10;;;1.10;;
5813;SDS011;2933;52.302;8.134;2023-11-18T20:32:43;1.30;;;1.20;;
5813;SDS011;2933;52.302;8.134;2023-11-18T20:37:45;1.00;;;1.00;;
5813;SDS011;2933;52.302;8.134;2023-11-18T20:42:49;1.63;;;1.60;;
5813;SDS011;2933;52.302;8.134;2023-11-18T20:47:51;1.17;;;1.17;;
5813;SDS011;2933;52.302;8.134;2023-11-18T20:52:53;1.40;;;1.40;;
5813;SDS011;2933;52.302;8.134;2023-11-18T20:57:56;1.10;;;1.10;;
5813;SDS011;2933;52.302;8.134;2023-11-18T21:02:58;1.67;;;1.60;;
5813;SDS011;2933;52.302;8.134;2023-11-18T21:07:59;1.53;;;1.50;;
5813;SDS011;2933;52.302;8.134;2023-11-18T21:13:02;1.27;;;1.23;;
5813;SDS011;2933;52.302;8.134;2023-11-18T21:18:07;1.67;;;1.67;;
5813;SDS011;2933;52.302;8.134;2023-11-18T21:23:09;2.40;;;2.03;;
5813;SDS011;2933;52.302;8.134;2023-11-18T21:28:12;1.87;;;1.77;;
5813;SDS011;2933;52.302;8.134;2023-11-18T21:33:14;2.77;;;2.57;;
5813;SDS011;2933;52.302;8.134;2023-11-18T21:38:16;2.33;;;2.20;;
5813;SDS011;2933;52.302;8.134;2023-11-18T21:43:19;2.87;;;2.77;;
5813;SDS011;2933;52.302;8.134;2023-11-18T21:48:20;2.37;;;2.27;;
5813;SDS011;2933;52.302;8.134;2023-11-18T21:53:22;3.20;;;2.90;;
5813;SDS011;2933;52.302;8.134;2023-11-18T21:58:28;3.20;;;3.00;;
5813;SDS011;2933;52.302;8.134;2023-11-18T22:03:30;3.50;;;3.30;;
5813;SDS011;2933;52.302;8.134;2023-11-18T22:08:31;2.80;;;2.70;;
5813;SDS011;2933;52.302;8.134;2023-11-18T22:13:35;3.57;;;3.37;;
5813;SDS011;2933;52.302;8.134;2023-11-18T22:18:36;4.37;;;3.73;;
5813;SDS011;2933;52.302;8.134;2023-11-18T22:23:38;4.50;;;4.10;;
5813;SDS011;2933;52.302;8.134;2023-11-18T22:28:41;4.40;;;4.03;;
5813;SDS011;2933;52.302;8.134;2023-11-18T22:33:42;4.07;;;3.77;;
5813;SDS011;2933;52.302;8.134;2023-11-18T22:38:44;3.27;;;3.07;;
5813;SDS011;2933;52.302;8.134;2023-11-18T22:43:47;4.30;;;4.00;;
5813;SDS011;2933;52.302;8.134;2023-11-18T22:48:49;4.37;;;4.03;;
5813;SDS011;2933;52.302;8.134;2023-11-18T22:53:50;3.47;;;3.27;;
5813;SDS011;2933;52.302;8.134;2023-11-18T22:58:55;3.50;;;3.27;;
5813;SDS011;2933;52.302;8.134;2023-11-18T23:03:56;3.10;;;2.90;;
5813;SDS011;2933;52.302;8.134;2023-11-18T23:08:58;4.03;;;3.73;;
5813;SDS011;2933;52.302;8.134;2023-11-18T23:14:01;4.60;;;4.20;;
5813;SDS011;2933;52.302;8.134;2023-11-18T23:19:03;5.57;;;4.60;;
5813;SDS011;2933;52.302;8.134;2023-11-18T23:24:06;4.93;;;4.43;;
5813;SDS011;2933;52.302;8.134;2023-11-18T23:29:10;6.10;;;5.60;;
5813;SDS011;2933;52.302;8.134;2023-11-18T23:34:12;6.37;;;5.77;;
5813;SDS011;2933;52.302;8.134;2023-11-18T23:39:14;6.80;;;5.77;;
5813;SDS011;2933;52.302;8.134;2023-11-18T23:44:18;6.87;;;5.60;;
5813;SDS011;2933;52.302;8.134;2023-11-18T23:49:24;5.97;;;5.40;;
5813;SDS011;2933;52.302;8.134;2023-11-18T23:54:27;6.30;;;5.43;;
5813;SDS011;2933;52.302;8.134;2023-11-18T23:59:32;7.07;;;6.37;;
